Main page
METAR-TAF:

METAR-TAF

Airports :

Khorramabad, Iran

Khorramabad Airport

latitude: 33-26-11N, longitude: 048-17-09E, elevation: 1155 m

Current weather observation

The report was made 43 minutes ago, at 19:50 UTC
Wind 6 kt from the South/Southeast
Temperature 18°C
Humidity 49%
Pressure 1018 hPa
Visibility: 8000 m

METAR: OICK 301950Z 15006KT 8000 NSC 18/07 Q1018

Time: 01:03 (20:33 UTC)


TAF: missing

Weather observations and forecasts of more than 4000 airports (METAR and TAF reports).

The available stations are represented by yellow and red dots on the map.

Hover mouse over dot to see the name of the station.

Then click to see weather observations and forecasts.

To change the map : click on the green buttons with a black cross to zoom in, on the green button with a dash to zoom out, or on the green arrows for adjacent maps.


METAR-TAF: